Prairie Du Sac, Wisconsin
Current Conditions -  °F | °C
As of 11:50 PM on Saturday 20 Dec 2014 (Local Time) from KC29 Reporting Station
Overcast Overcast  
Wind Chill: 27°   Ceiling: 1000
Heat Index: 32°   Visibility: 7mi
Dew Point: 28°   Wind: 5mph
Humidity: 83%   Direction: 190°S
Pressure: 30.18"   Gusts: NA
Location:  43.29°N, 89.72°W
Report Text: KC29 210550Z AUTO 19004KT 7SM OVC010 00/M02 A3018 RMK AO1 T00001025 10000 21005 400001028
Loading
Personal Weather Stations






























Interactive Weather Map New forecast layout! Learn more

10-Day Weather Forecast

Advertisements
Track Severe Weather on mobile